createdAt,value
2018-09-06T00:04:54.736Z,81.30
2018-09-06T00:10:17.159Z,81.50
2018-09-06T00:15:39.030Z,81.90
2018-09-06T00:21:01.047Z,82.30
2018-09-06T00:26:24.275Z,82.90
2018-09-06T00:31:46.252Z,83.30
2018-09-06T00:37:08.534Z,83.90
2018-09-06T00:42:30.608Z,83.70
2018-09-06T00:47:52.579Z,83.70
2018-09-06T00:53:14.270Z,83.90
2018-09-06T00:58:36.434Z,84.00
2018-09-06T01:03:58.250Z,84.20
2018-09-06T01:09:20.434Z,84.70
2018-09-06T01:14:42.799Z,84.60
2018-09-06T01:20:04.748Z,84.90
2018-09-06T01:25:31.817Z,84.90
2018-09-06T01:30:53.956Z,85.70
2018-09-06T01:36:20.473Z,85.60
2018-09-06T01:41:42.746Z,85.90
2018-09-06T01:47:05.496Z,86.00
2018-09-06T01:52:27.655Z,86.20
2018-09-06T01:57:49.447Z,86.00
2018-09-06T02:03:11.682Z,86.20
2018-09-06T02:08:33.938Z,86.80
2018-09-06T02:13:55.850Z,86.80
2018-09-06T02:19:17.899Z,87.30
2018-09-06T02:24:39.686Z,86.70
2018-09-06T02:30:01.625Z,86.40
2018-09-06T02:35:23.826Z,87.00
2018-09-06T02:40:45.606Z,87.20
2018-09-06T02:46:07.802Z,86.90
2018-09-06T02:51:29.954Z,87.30
2018-09-06T02:56:51.992Z,86.70
2018-09-06T03:02:13.404Z,86.60
2018-09-06T03:07:35.702Z,86.40
2018-09-06T03:12:57.747Z,86.20
2018-09-06T03:18:19.852Z,86.40
2018-09-06T03:23:42.188Z,86.70
2018-09-06T03:29:04.024Z,86.70
2018-09-06T03:34:26.136Z,87.00
2018-09-06T03:39:47.818Z,87.30
2018-09-06T03:45:09.849Z,87.50
2018-09-06T03:50:31.803Z,87.90
2018-09-06T03:55:53.762Z,88.00
2018-09-06T04:01:15.510Z,87.70
2018-09-06T04:06:37.403Z,88.10
2018-09-06T04:11:59.646Z,88.20
2018-09-06T04:17:21.434Z,89.00
2018-09-06T04:22:53.194Z,88.90
2018-09-06T04:28:15.973Z,89.00
2018-09-06T04:33:38.173Z,89.10
2018-09-06T04:38:59.914Z,89.20
2018-09-06T04:44:21.858Z,89.60
2018-09-06T04:49:43.548Z,89.80
2018-09-06T04:55:06.108Z,90.10
2018-09-06T05:00:28.494Z,90.10
2018-09-06T05:05:50.507Z,90.40
2018-09-06T05:11:12.465Z,90.10
2018-09-06T05:16:34.675Z,90.10
2018-09-06T05:21:56.545Z,90.10
2018-09-06T05:27:18.638Z,90.00
2018-09-06T05:32:40.889Z,90.00
2018-09-06T05:38:02.898Z,90.00
2018-09-06T05:43:24.892Z,90.00
2018-09-06T05:48:46.634Z,90.10
2018-09-06T05:54:08.845Z,90.00
2018-09-06T05:59:30.993Z,89.90
2018-09-06T06:04:52.978Z,89.50
2018-09-06T06:10:15.364Z,89.60
2018-09-06T06:15:37.598Z,89.80
2018-09-06T06:20:59.246Z,90.00
2018-09-06T06:26:21.374Z,90.10
2018-09-06T06:31:43.650Z,90.10
2018-09-06T06:37:05.562Z,90.20
2018-09-06T06:42:27.633Z,90.10
2018-09-06T06:47:49.406Z,90.20
2018-09-06T06:53:11.488Z,90.10
2018-09-06T06:58:33.364Z,90.10
2018-09-06T07:03:55.898Z,90.10
2018-09-06T07:09:17.846Z,90.10
2018-09-06T07:14:39.698Z,90.10
2018-09-06T07:20:01.639Z,90.10
2018-09-06T07:25:24.063Z,89.80
2018-09-06T07:30:45.983Z,89.60
2018-09-06T07:36:08.114Z,89.70
2018-09-06T07:41:30.796Z,89.50
2018-09-06T07:46:53.008Z,88.80
2018-09-06T07:52:15.155Z,88.70
2018-09-06T07:57:37.154Z,88.50
2018-09-06T08:02:59.176Z,87.40
2018-09-06T08:08:21.206Z,86.40
2018-09-06T08:13:43.437Z,86.40
2018-09-06T08:19:05.728Z,84.70
2018-09-06T08:24:28.989Z,83.60
2018-09-06T08:29:51.213Z,82.60
2018-09-06T08:35:13.150Z,80.50
2018-09-06T08:40:35.254Z,80.10
2018-09-06T08:45:57.695Z,77.80
2018-09-06T08:51:19.705Z,77.50
2018-09-06T08:56:41.651Z,75.70
2018-09-06T09:02:03.669Z,74.10
2018-09-06T09:07:25.585Z,73.20
2018-09-06T09:12:47.913Z,71.50
2018-09-06T09:18:09.757Z,69.00
2018-09-06T09:23:32.017Z,66.40
2018-09-06T09:28:54.268Z,66.90
2018-09-06T09:34:16.697Z,63.50
2018-09-06T09:39:39.309Z,62.80
2018-09-06T09:45:01.308Z,64.00
2018-09-06T09:55:44.501Z,58.60
2018-09-06T10:01:06.489Z,58.70
2018-09-06T10:06:33.022Z,57.80
2018-09-06T10:11:54.733Z,58.20
2018-09-06T10:17:16.812Z,58.20
2018-09-06T10:22:39.601Z,58.20
2018-09-06T10:28:02.911Z,56.60
2018-09-06T10:33:24.912Z,57.40
2018-09-06T10:38:47.135Z,56.70
2018-09-06T10:44:08.910Z,56.60
2018-09-06T10:49:30.931Z,55.70
2018-09-06T10:54:52.973Z,54.80
2018-09-06T11:00:15.169Z,54.20
2018-09-06T11:05:37.628Z,54.00
2018-09-06T11:10:59.346Z,53.20
2018-09-06T11:16:22.086Z,52.40
2018-09-06T11:21:44.066Z,52.00
2018-09-06T11:27:06.430Z,52.90
2018-09-06T11:32:28.136Z,52.20
2018-09-06T11:37:50.218Z,51.40
2018-09-06T11:43:12.009Z,51.90
2018-09-06T11:48:34.124Z,51.00
2018-09-06T11:53:56.106Z,52.70
2018-09-06T11:59:19.346Z,50.40
2018-09-06T12:04:41.152Z,51.30
2018-09-06T12:10:03.150Z,51.00
2018-09-06T12:15:25.235Z,50.50
2018-09-06T12:20:47.321Z,49.60
2018-09-06T12:26:09.528Z,50.60
2018-09-06T12:31:31.918Z,50.50
2018-09-06T12:36:54.142Z,50.40
2018-09-06T12:42:16.073Z,49.70
2018-09-06T12:47:38.427Z,50.50
2018-09-06T12:53:01.550Z,50.50
2018-09-06T12:58:23.678Z,50.50
2018-09-06T13:03:46.064Z,50.40
2018-09-06T13:09:09.399Z,48.80
2018-09-06T13:14:31.508Z,49.20
2018-09-06T13:19:53.580Z,47.90
2018-09-06T13:25:15.980Z,47.70
2018-09-06T13:30:38.046Z,47.30
2018-09-06T13:36:00.547Z,46.80
2018-09-06T13:41:22.184Z,47.60
2018-09-06T13:46:44.253Z,47.40
2018-09-06T13:52:06.031Z,47.30
2018-09-06T13:57:28.385Z,47.90
2018-09-06T14:02:50.873Z,48.50
2018-09-06T14:08:13.326Z,49.60
2018-09-06T14:13:35.234Z,49.80
2018-09-06T14:18:57.574Z,49.40
2018-09-06T14:24:19.613Z,50.70
2018-09-06T14:29:41.398Z,51.80
2018-09-06T14:35:03.495Z,52.30
2018-09-06T14:40:25.420Z,53.30
2018-09-06T14:45:47.485Z,53.70
2018-09-06T14:51:09.069Z,54.50
2018-09-06T14:56:31.234Z,54.20
2018-09-06T15:01:54.357Z,54.20
2018-09-06T15:07:16.449Z,54.90
2018-09-06T15:12:38.298Z,55.70
2018-09-06T15:18:01.793Z,56.50
2018-09-06T15:23:23.774Z,57.50
2018-09-06T15:28:45.856Z,58.10
2018-09-06T15:34:08.247Z,58.10
2018-09-06T15:39:30.098Z,59.10
2018-09-06T15:44:52.342Z,58.90
2018-09-06T15:50:14.211Z,59.80
2018-09-06T15:55:36.335Z,60.70
2018-09-06T16:00:58.486Z,60.20
2018-09-06T16:06:20.503Z,60.80
2018-09-06T16:11:43.229Z,60.30
2018-09-06T16:17:05.238Z,61.00
2018-09-06T16:22:27.547Z,61.10
2018-09-06T16:27:49.288Z,62.40
2018-09-06T16:33:11.388Z,61.40
2018-09-06T16:38:33.186Z,61.20
2018-09-06T16:43:55.312Z,61.20
2018-09-06T16:49:17.061Z,61.70
2018-09-06T16:54:39.074Z,60.90
2018-09-06T17:00:00.883Z,60.30
2018-09-06T17:05:22.940Z,60.70
2018-09-06T17:10:45.366Z,61.90
2018-09-06T17:16:07.587Z,61.80
2018-09-06T17:21:29.537Z,62.30
2018-09-06T17:26:51.951Z,62.30
2018-09-06T17:32:14.125Z,62.10
2018-09-06T17:37:36.043Z,62.20
2018-09-06T17:42:58.190Z,62.40
2018-09-06T17:48:19.834Z,62.20
2018-09-06T17:53:42.025Z,62.60
2018-09-06T17:59:05.984Z,62.50
2018-09-06T18:04:27.863Z,62.40
2018-09-06T18:09:50.219Z,62.50
2018-09-06T18:15:11.934Z,63.20
2018-09-06T18:20:34.017Z,63.70
2018-09-06T18:25:56.655Z,64.70
2018-09-06T18:31:19.193Z,65.60
2018-09-06T18:36:41.130Z,65.90
2018-09-06T18:42:03.258Z,66.50
2018-09-06T18:47:25.139Z,66.80
2018-09-06T18:52:52.356Z,67.00
2018-09-06T18:58:19.635Z,67.20
2018-09-06T19:03:49.547Z,68.30
2018-09-06T19:09:17.636Z,68.50
2018-09-06T19:14:46.090Z,67.80
2018-09-06T19:20:15.618Z,67.90
2018-09-06T19:25:45.727Z,68.40
2018-09-06T19:31:12.532Z,68.80
2018-09-06T19:36:43.130Z,69.20
2018-09-06T19:42:13.269Z,69.40
2018-09-06T19:47:39.715Z,69.40
2018-09-06T19:53:09.808Z,69.50
2018-09-06T19:58:38.321Z,69.70
2018-09-06T20:04:00.379Z,69.50
2018-09-06T20:09:22.757Z,68.90
2018-09-06T20:14:45.012Z,69.10
2018-09-06T20:20:07.233Z,69.40
2018-09-06T20:25:30.629Z,69.70
2018-09-06T20:30:53.019Z,69.80
2018-09-06T20:36:14.865Z,70.50
2018-09-06T20:41:36.931Z,71.70
2018-09-06T20:46:58.682Z,72.20
2018-09-06T20:52:20.890Z,72.90
2018-09-06T20:57:43.163Z,73.50
2018-09-06T21:03:05.109Z,74.90
2018-09-06T21:08:27.591Z,75.80
2018-09-06T21:13:50.088Z,76.90
2018-09-06T21:43:04.941Z,76.60
2018-09-06T21:48:26.813Z,76.60
2018-09-06T21:53:48.691Z,77.30
2018-09-06T21:59:10.782Z,77.30
2018-09-06T22:04:32.563Z,77.00
2018-09-06T22:09:54.661Z,77.30
2018-09-06T22:15:16.702Z,77.00
2018-09-06T22:20:38.813Z,76.70
2018-09-06T22:26:00.804Z,76.20
2018-09-06T22:31:22.998Z,76.30
2018-09-06T22:36:45.216Z,76.00
2018-09-06T22:42:07.237Z,76.10
2018-09-06T22:47:30.341Z,76.30
2018-09-06T22:52:54.113Z,76.70
2018-09-06T22:58:17.013Z,77.10
2018-09-06T23:03:41.104Z,77.20
2018-09-06T23:09:03.589Z,77.20
2018-09-06T23:14:25.422Z,77.10
2018-09-06T23:19:48.075Z,77.40
2018-09-06T23:25:14.601Z,77.80
2018-09-06T23:30:41.301Z,78.00
2018-09-06T23:36:03.491Z,78.00
2018-09-06T23:41:25.278Z,77.90
2018-09-06T23:46:47.469Z,78.30
2018-09-06T23:52:09.630Z,79.00
2018-09-06T23:57:31.749Z,79.00
